sensor_id;sensor_type;location;lat;lon;timestamp;pressure;altitude;pressure_sealevel;temperature;humidity
43691;BME280;29293;52.190;21.226;2023-04-10T00:03:54;101155.13;;;5.53;100.00
43691;BME280;29293;52.190;21.226;2023-04-10T00:19:01;101155.08;;;5.32;100.00
43691;BME280;29293;52.190;21.226;2023-04-10T00:34:07;101160.01;;;4.96;100.00
43691;BME280;29293;52.190;21.226;2023-04-10T00:49:14;101167.36;;;4.76;100.00
43691;BME280;29293;52.190;21.226;2023-04-10T01:04:23;101178.56;;;4.45;100.00
43691;BME280;29293;52.190;21.226;2023-04-10T01:19:48;101180.76;;;4.11;100.00
43691;BME280;29293;52.190;21.226;2023-04-10T01:35:07;101174.30;;;4.04;100.00
43691;BME280;29293;52.190;21.226;2023-04-10T01:50:15;101162.36;;;3.91;100.00
43691;BME280;29293;52.190;21.226;2023-04-10T02:05:24;101163.39;;;3.77;100.00
43691;BME280;29293;52.190;21.226;2023-04-10T02:20:34;101158.43;;;3.60;100.00
43691;BME280;29293;52.190;21.226;2023-04-10T02:35:41;101167.96;;;3.22;100.00
43691;BME280;29293;52.190;21.226;2023-04-10T02:50:48;101170.86;;;2.99;100.00
43691;BME280;29293;52.190;21.226;2023-04-10T03:05:55;101173.60;;;2.83;100.00
43691;BME280;29293;52.190;21.226;2023-04-10T03:21:02;101175.92;;;2.70;100.00
43691;BME280;29293;52.190;21.226;2023-04-10T03:36:10;101174.54;;;2.59;100.00
43691;BME280;29293;52.190;21.226;2023-04-10T03:51:16;101162.48;;;2.42;100.00
43691;BME280;29293;52.190;21.226;2023-04-10T04:06:24;101169.31;;;2.44;100.00
43691;BME280;29293;52.190;21.226;2023-04-10T04:21:31;101181.23;;;2.50;100.00
43691;BME280;29293;52.190;21.226;2023-04-10T04:36:38;101181.16;;;2.66;100.00
43691;BME280;29293;52.190;21.226;2023-04-10T04:51:45;101194.16;;;3.08;100.00
43691;BME280;29293;52.190;21.226;2023-04-10T05:06:51;101207.34;;;3.54;100.00
43691;BME280;29293;52.190;21.226;2023-04-10T05:21:58;101225.32;;;4.14;100.00
43691;BME280;29293;52.190;21.226;2023-04-10T05:37:05;101242.68;;;5.15;100.00
43691;BME280;29293;52.190;21.226;2023-04-10T05:52:13;101249.52;;;6.07;100.00
43691;BME280;29293;52.190;21.226;2023-04-10T06:07:19;101240.59;;;6.81;100.00
43691;BME280;29293;52.190;21.226;2023-04-10T06:22:26;101244.45;;;7.57;100.00
43691;BME280;29293;52.190;21.226;2023-04-10T06:37:33;101245.63;;;8.10;100.00
43691;BME280;29293;52.190;21.226;2023-04-10T06:52:40;101257.53;;;8.89;100.00
43691;BME280;29293;52.190;21.226;2023-04-10T07:07:46;101260.30;;;9.77;100.00
43691;BME280;29293;52.190;21.226;2023-04-10T07:22:55;101267.69;;;10.58;100.00
43691;BME280;29293;52.190;21.226;2023-04-10T07:38:01;101261.94;;;11.26;100.00
43691;BME280;29293;52.190;21.226;2023-04-10T07:53:09;101262.86;;;11.93;100.00
43691;BME280;29293;52.190;21.226;2023-04-10T08:08:16;101259.83;;;12.68;100.00
43691;BME280;29293;52.190;21.226;2023-04-10T08:23:23;101247.30;;;13.26;100.00
43691;BME280;29293;52.190;21.226;2023-04-10T08:38:29;101238.70;;;13.92;100.00
43691;BME280;29293;52.190;21.226;2023-04-10T08:53:40;101234.34;;;14.29;100.00
43691;BME280;29293;52.190;21.226;2023-04-10T09:08:49;101225.15;;;14.78;100.00
43691;BME280;29293;52.190;21.226;2023-04-10T09:24:03;101215.40;;;15.09;100.00
43691;BME280;29293;52.190;21.226;2023-04-10T09:39:11;101199.05;;;15.78;100.00
43691;BME280;29293;52.190;21.226;2023-04-10T09:54:18;101181.67;;;15.77;100.00
43691;BME280;29293;52.190;21.226;2023-04-10T10:09:41;101165.09;;;16.27;100.00
43691;BME280;29293;52.190;21.226;2023-04-10T10:24:48;101146.89;;;16.81;100.00
43691;BME280;29293;52.190;21.226;2023-04-10T10:40:04;101135.09;;;17.05;100.00
43691;BME280;29293;52.190;21.226;2023-04-10T10:55:29;101121.96;;;16.85;100.00
43691;BME280;29293;52.190;21.226;2023-04-10T11:11:01;101110.90;;;16.48;100.00
43691;BME280;29293;52.190;21.226;2023-04-10T11:26:09;101098.07;;;16.99;100.00
43691;BME280;29293;52.190;21.226;2023-04-10T11:41:16;101079.84;;;16.99;100.00
43691;BME280;29293;52.190;21.226;2023-04-10T11:56:24;101059.30;;;17.35;100.00
43691;BME280;29293;52.190;21.226;2023-04-10T12:11:31;101044.45;;;17.61;100.00
43691;BME280;29293;52.190;21.226;2023-04-10T12:26:45;101029.10;;;17.07;100.00
43691;BME280;29293;52.190;21.226;2023-04-10T12:41:52;101017.77;;;17.47;100.00
43691;BME280;29293;52.190;21.226;2023-04-10T12:57:00;101010.07;;;16.43;100.00
43691;BME280;29293;52.190;21.226;2023-04-10T13:12:08;100996.87;;;15.70;100.00
43691;BME280;29293;52.190;21.226;2023-04-10T13:27:15;100991.48;;;15.63;100.00
43691;BME280;29293;52.190;21.226;2023-04-10T13:42:22;100979.50;;;15.61;100.00
43691;BME280;29293;52.190;21.226;2023-04-10T13:57:29;100976.38;;;15.26;100.00
43691;BME280;29293;52.190;21.226;2023-04-10T14:12:35;100963.36;;;15.06;100.00
43691;BME280;29293;52.190;21.226;2023-04-10T14:27:42;100940.09;;;15.76;100.00
43691;BME280;29293;52.190;21.226;2023-04-10T14:42:50;100932.67;;;16.21;100.00
43691;BME280;29293;52.190;21.226;2023-04-10T14:57:59;100916.44;;;16.54;98.74
43691;BME280;29293;52.190;21.226;2023-04-10T15:13:05;100900.31;;;16.59;84.56
43691;BME280;29293;52.190;21.226;2023-04-10T15:28:12;100883.78;;;16.47;79.96
43691;BME280;29293;52.190;21.226;2023-04-10T15:43:19;100867.02;;;16.60;81.00
43691;BME280;29293;52.190;21.226;2023-04-10T15:58:26;100855.49;;;16.56;80.79
43691;BME280;29293;52.190;21.226;2023-04-10T16:13:34;100861.39;;;16.23;83.42
43691;BME280;29293;52.190;21.226;2023-04-10T16:28:41;100860.00;;;15.75;85.71
43691;BME280;29293;52.190;21.226;2023-04-10T16:43:48;100847.61;;;15.27;87.13
43691;BME280;29293;52.190;21.226;2023-04-10T16:58:55;100844.33;;;14.68;90.11
43691;BME280;29293;52.190;21.226;2023-04-10T17:14:02;100846.77;;;13.89;94.50
43691;BME280;29293;52.190;21.226;2023-04-10T17:29:10;100847.76;;;13.03;99.20
43691;BME280;29293;52.190;21.226;2023-04-10T17:44:17;100851.12;;;12.21;100.00
43691;BME280;29293;52.190;21.226;2023-04-10T17:59:25;100853.21;;;11.56;100.00
43691;BME280;29293;52.190;21.226;2023-04-10T18:14:34;100849.87;;;11.06;100.00
43691;BME280;29293;52.190;21.226;2023-04-10T18:29:43;100840.98;;;10.58;100.00
43691;BME280;29293;52.190;21.226;2023-04-10T18:44:50;100837.83;;;10.28;100.00
43691;BME280;29293;52.190;21.226;2023-04-10T19:00:00;100835.59;;;9.96;100.00
43691;BME280;29293;52.190;21.226;2023-04-10T19:15:11;100828.06;;;9.66;100.00
43691;BME280;29293;52.190;21.226;2023-04-10T19:30:19;100822.98;;;9.45;100.00
43691;BME280;29293;52.190;21.226;2023-04-10T19:45:26;100806.71;;;9.08;100.00
43691;BME280;29293;52.190;21.226;2023-04-10T20:00:33;100807.32;;;8.65;100.00
43691;BME280;29293;52.190;21.226;2023-04-10T20:15:40;100795.51;;;8.16;100.00
43691;BME280;29293;52.190;21.226;2023-04-10T20:30:48;100787.55;;;7.82;100.00
43691;BME280;29293;52.190;21.226;2023-04-10T20:45:55;100774.73;;;7.54;100.00
43691;BME280;29293;52.190;21.226;2023-04-10T21:01:02;100775.30;;;7.33;100.00
43691;BME280;29293;52.190;21.226;2023-04-10T21:16:09;100773.20;;;7.15;100.00
43691;BME280;29293;52.190;21.226;2023-04-10T21:31:16;100766.08;;;6.81;100.00
43691;BME280;29293;52.190;21.226;2023-04-10T21:46:23;100759.36;;;6.45;100.00
43691;BME280;29293;52.190;21.226;2023-04-10T22:01:30;100742.99;;;6.19;100.00
43691;BME280;29293;52.190;21.226;2023-04-10T22:16:37;100730.33;;;5.88;100.00
43691;BME280;29293;52.190;21.226;2023-04-10T22:31:44;100730.09;;;5.49;100.00
43691;BME280;29293;52.190;21.226;2023-04-10T22:46:51;100725.54;;;5.23;100.00
43691;BME280;29293;52.190;21.226;2023-04-10T23:01:58;100707.17;;;5.05;100.00
43691;BME280;29293;52.190;21.226;2023-04-10T23:17:05;100687.23;;;4.72;100.00
43691;BME280;29293;52.190;21.226;2023-04-10T23:32:12;100669.91;;;4.50;100.00
43691;BME280;29293;52.190;21.226;2023-04-10T23:47:19;100647.17;;;4.35;100.00
